sensor_id;sensor_type;location;lat;lon;timestamp;P1;durP1;ratioP1;P2;durP2;ratioP2
62711;SDS011;48772;55.586;37.730;2023-06-19T00:00:21;9.20;;;3.70;;
62711;SDS011;48772;55.586;37.730;2023-06-19T00:02:47;5.90;;;3.00;;
62711;SDS011;48772;55.586;37.730;2023-06-19T00:05:13;6.15;;;3.55;;
62711;SDS011;48772;55.586;37.730;2023-06-19T00:07:39;7.88;;;3.30;;
62711;SDS011;48772;55.586;37.730;2023-06-19T00:10:06;6.35;;;3.25;;
62711;SDS011;48772;55.586;37.730;2023-06-19T00:12:32;7.15;;;3.58;;
62711;SDS011;48772;55.586;37.730;2023-06-19T00:14:58;8.07;;;3.55;;
62711;SDS011;48772;55.586;37.730;2023-06-19T00:17:24;10.70;;;3.72;;
62711;SDS011;48772;55.586;37.730;2023-06-19T00:19:53;10.93;;;4.03;;
62711;SDS011;48772;55.586;37.730;2023-06-19T00:22:19;13.40;;;4.28;;
62711;SDS011;48772;55.586;37.730;2023-06-19T00:24:46;11.20;;;4.10;;
62711;SDS011;48772;55.586;37.730;2023-06-19T00:27:12;9.35;;;3.83;;
62711;SDS011;48772;55.586;37.730;2023-06-19T00:29:38;8.73;;;3.70;;
62711;SDS011;48772;55.586;37.730;2023-06-19T00:32:05;10.32;;;4.07;;
62711;SDS011;48772;55.586;37.730;2023-06-19T00:34:31;10.75;;;4.63;;
62711;SDS011;48772;55.586;37.730;2023-06-19T00:36:57;9.15;;;4.88;;
62711;SDS011;48772;55.586;37.730;2023-06-19T00:39:24;8.10;;;4.15;;
62711;SDS011;48772;55.586;37.730;2023-06-19T00:41:52;6.80;;;4.13;;
62711;SDS011;48772;55.586;37.730;2023-06-19T00:44:18;18.25;;;4.47;;
62711;SDS011;48772;55.586;37.730;2023-06-19T00:46:45;15.63;;;4.78;;
62711;SDS011;48772;55.586;37.730;2023-06-19T00:49:11;6.00;;;4.65;;
62711;SDS011;48772;55.586;37.730;2023-06-19T00:51:39;7.65;;;4.88;;
62711;SDS011;48772;55.586;37.730;2023-06-19T00:54:05;11.13;;;4.85;;
62711;SDS011;48772;55.586;37.730;2023-06-19T00:56:32;13.45;;;5.50;;
62711;SDS011;48772;55.586;37.730;2023-06-19T00:59:02;11.55;;;5.68;;
62711;SDS011;48772;55.586;37.730;2023-06-19T01:01:33;13.20;;;5.70;;
62711;SDS011;48772;55.586;37.730;2023-06-19T01:03:59;11.60;;;5.35;;
62711;SDS011;48772;55.586;37.730;2023-06-19T01:06:27;17.30;;;5.82;;
62711;SDS011;48772;55.586;37.730;2023-06-19T01:09:10;14.65;;;5.70;;
62711;SDS011;48772;55.586;37.730;2023-06-19T01:11:47;12.55;;;6.38;;
62711;SDS011;48772;55.586;37.730;2023-06-19T01:14:35;13.18;;;6.15;;
62711;SDS011;48772;55.586;37.730;2023-06-19T01:17:04;10.95;;;6.13;;
62711;SDS011;48772;55.586;37.730;2023-06-19T01:19:31;12.90;;;6.60;;
62711;SDS011;48772;55.586;37.730;2023-06-19T01:22:01;13.60;;;5.53;;
62711;SDS011;48772;55.586;37.730;2023-06-19T01:24:28;11.15;;;5.40;;
62711;SDS011;48772;55.586;37.730;2023-06-19T01:26:54;11.77;;;4.78;;
62711;SDS011;48772;55.586;37.730;2023-06-19T01:29:20;9.55;;;4.93;;
62711;SDS011;48772;55.586;37.730;2023-06-19T01:34:54;5.73;;;4.00;;
62711;SDS011;48772;55.586;37.730;2023-06-19T01:37:23;7.65;;;4.15;;
62711;SDS011;48772;55.586;37.730;2023-06-19T01:39:52;6.30;;;4.07;;
62711;SDS011;48772;55.586;37.730;2023-06-19T01:42:22;12.52;;;4.30;;
62711;SDS011;48772;55.586;37.730;2023-06-19T01:44:49;10.70;;;4.20;;
62711;SDS011;48772;55.586;37.730;2023-06-19T01:47:16;6.55;;;3.60;;
62711;SDS011;48772;55.586;37.730;2023-06-19T01:49:48;8.82;;;4.05;;
62711;SDS011;48772;55.586;37.730;2023-06-19T01:52:14;4.97;;;3.55;;
62711;SDS011;48772;55.586;37.730;2023-06-19T01:54:40;8.35;;;3.70;;
62711;SDS011;48772;55.586;37.730;2023-06-19T01:57:06;4.70;;;2.80;;
62711;SDS011;48772;55.586;37.730;2023-06-19T01:59:33;10.95;;;3.28;;
62711;SDS011;48772;55.586;37.730;2023-06-19T02:01:59;8.80;;;3.75;;
62711;SDS011;48772;55.586;37.730;2023-06-19T02:04:25;10.82;;;3.40;;
62711;SDS011;48772;55.586;37.730;2023-06-19T02:06:50;10.20;;;3.53;;
62711;SDS011;48772;55.586;37.730;2023-06-19T02:09:16;11.82;;;3.55;;
62711;SDS011;48772;55.586;37.730;2023-06-19T02:11:42;6.68;;;3.10;;
62711;SDS011;48772;55.586;37.730;2023-06-19T02:14:11;7.22;;;2.80;;
62711;SDS011;48772;55.586;37.730;2023-06-19T02:16:40;8.93;;;3.10;;
62711;SDS011;48772;55.586;37.730;2023-06-19T02:19:12;5.80;;;3.15;;
62711;SDS011;48772;55.586;37.730;2023-06-19T02:21:38;8.25;;;3.03;;
62711;SDS011;48772;55.586;37.730;2023-06-19T02:24:04;5.20;;;3.28;;
62711;SDS011;48772;55.586;37.730;2023-06-19T02:26:31;5.47;;;3.17;;
62711;SDS011;48772;55.586;37.730;2023-06-19T02:28:57;5.63;;;2.70;;
62711;SDS011;48772;55.586;37.730;2023-06-19T02:31:23;7.20;;;2.65;;
62711;SDS011;48772;55.586;37.730;2023-06-19T02:33:49;11.25;;;2.60;;
62711;SDS011;48772;55.586;37.730;2023-06-19T02:36:19;8.18;;;2.88;;
62711;SDS011;48772;55.586;37.730;2023-06-19T02:38:45;3.65;;;2.53;;
62711;SDS011;48772;55.586;37.730;2023-06-19T02:41:12;7.72;;;2.50;;
62711;SDS011;48772;55.586;37.730;2023-06-19T02:43:42;9.40;;;2.95;;
62711;SDS011;48772;55.586;37.730;2023-06-19T02:46:12;6.78;;;2.75;;
62711;SDS011;48772;55.586;37.730;2023-06-19T02:48:38;8.23;;;2.72;;
62711;SDS011;48772;55.586;37.730;2023-06-19T02:51:06;7.80;;;2.78;;
62711;SDS011;48772;55.586;37.730;2023-06-19T02:53:32;6.20;;;2.47;;
62711;SDS011;48772;55.586;37.730;2023-06-19T02:55:58;10.23;;;2.80;;
62711;SDS011;48772;55.586;37.730;2023-06-19T02:58:24;6.72;;;2.83;;
62711;SDS011;48772;55.586;37.730;2023-06-19T03:00:52;6.53;;;2.75;;
62711;SDS011;48772;55.586;37.730;2023-06-19T03:03:18;4.22;;;2.78;;
62711;SDS011;48772;55.586;37.730;2023-06-19T03:05:44;10.93;;;3.00;;
62711;SDS011;48772;55.586;37.730;2023-06-19T03:08:10;8.68;;;2.75;;
62711;SDS011;48772;55.586;37.730;2023-06-19T03:10:36;9.15;;;2.75;;
62711;SDS011;48772;55.586;37.730;2023-06-19T03:13:02;12.50;;;3.33;;
62711;SDS011;48772;55.586;37.730;2023-06-19T03:15:28;3.60;;;3.15;;
62711;SDS011;48772;55.586;37.730;2023-06-19T03:17:55;9.23;;;3.15;;
62711;SDS011;48772;55.586;37.730;2023-06-19T03:20:23;6.50;;;3.10;;
62711;SDS011;48772;55.586;37.730;2023-06-19T03:22:54;6.75;;;2.92;;
62711;SDS011;48772;55.586;37.730;2023-06-19T03:25:22;9.75;;;3.00;;
62711;SDS011;48772;55.586;37.730;2023-06-19T03:27:48;7.22;;;2.90;;
62711;SDS011;48772;55.586;37.730;2023-06-19T03:30:14;5.22;;;3.05;;
62711;SDS011;48772;55.586;37.730;2023-06-19T03:32:44;5.50;;;2.88;;
62711;SDS011;48772;55.586;37.730;2023-06-19T03:35:19;5.43;;;3.15;;
62711;SDS011;48772;55.586;37.730;2023-06-19T03:37:46;8.50;;;3.67;;
62711;SDS011;48772;55.586;37.730;2023-06-19T03:40:12;7.72;;;3.00;;
62711;SDS011;48772;55.586;37.730;2023-06-19T03:42:41;5.55;;;3.13;;
62711;SDS011;48772;55.586;37.730;2023-06-19T03:45:08;4.45;;;2.88;;
62711;SDS011;48772;55.586;37.730;2023-06-19T03:47:35;11.73;;;3.10;;
62711;SDS011;48772;55.586;37.730;2023-06-19T03:50:01;6.68;;;3.22;;
62711;SDS011;48772;55.586;37.730;2023-06-19T03:52:30;11.35;;;2.92;;
62711;SDS011;48772;55.586;37.730;2023-06-19T03:54:56;10.50;;;2.92;;
62711;SDS011;48772;55.586;37.730;2023-06-19T03:57:21;7.25;;;3.10;;
62711;SDS011;48772;55.586;37.730;2023-06-19T03:59:47;6.50;;;2.85;;
62711;SDS011;48772;55.586;37.730;2023-06-19T04:02:13;9.60;;;3.15;;
62711;SDS011;48772;55.586;37.730;2023-06-19T04:04:40;6.05;;;2.90;;
62711;SDS011;48772;55.586;37.730;2023-06-19T04:07:14;13.50;;;3.50;;
62711;SDS011;48772;55.586;37.730;2023-06-19T04:09:40;6.88;;;2.92;;
62711;SDS011;48772;55.586;37.730;2023-06-19T04:12:06;7.72;;;3.58;;
62711;SDS011;48772;55.586;37.730;2023-06-19T04:14:32;7.20;;;3.03;;
62711;SDS011;48772;55.586;37.730;2023-06-19T04:16:59;7.25;;;2.88;;
62711;SDS011;48772;55.586;37.730;2023-06-19T04:19:26;10.38;;;2.75;;
62711;SDS011;48772;55.586;37.730;2023-06-19T04:21:52;8.23;;;3.05;;
62711;SDS011;48772;55.586;37.730;2023-06-19T04:24:20;5.82;;;3.00;;
62711;SDS011;48772;55.586;37.730;2023-06-19T04:26:46;6.80;;;3.30;;
62711;SDS011;48772;55.586;37.730;2023-06-19T04:29:12;6.28;;;3.20;;
62711;SDS011;48772;55.586;37.730;2023-06-19T04:31:45;7.25;;;3.25;;
62711;SDS011;48772;55.586;37.730;2023-06-19T04:34:18;9.20;;;3.33;;
62711;SDS011;48772;55.586;37.730;2023-06-19T04:36:47;8.75;;;3.20;;
62711;SDS011;48772;55.586;37.730;2023-06-19T04:39:13;5.97;;;3.20;;
62711;SDS011;48772;55.586;37.730;2023-06-19T04:41:43;7.53;;;3.13;;
62711;SDS011;48772;55.586;37.730;2023-06-19T04:44:12;4.65;;;3.10;;
62711;SDS011;48772;55.586;37.730;2023-06-19T04:46:40;8.07;;;3.25;;
62711;SDS011;48772;55.586;37.730;2023-06-19T04:49:07;10.02;;;3.13;;
62711;SDS011;48772;55.586;37.730;2023-06-19T04:51:34;5.78;;;3.40;;
62711;SDS011;48772;55.586;37.730;2023-06-19T04:54:00;6.30;;;3.17;;
62711;SDS011;48772;55.586;37.730;2023-06-19T04:56:27;8.23;;;2.83;;
62711;SDS011;48772;55.586;37.730;2023-06-19T04:58:55;5.53;;;2.72;;
62711;SDS011;48772;55.586;37.730;2023-06-19T05:01:25;5.60;;;2.90;;
62711;SDS011;48772;55.586;37.730;2023-06-19T05:03:56;7.60;;;3.30;;
62711;SDS011;48772;55.586;37.730;2023-06-19T05:06:22;7.43;;;3.40;;
62711;SDS011;48772;55.586;37.730;2023-06-19T05:08:49;10.80;;;3.00;;
62711;SDS011;48772;55.586;37.730;2023-06-19T05:11:15;7.45;;;2.65;;
62711;SDS011;48772;55.586;37.730;2023-06-19T05:13:41;11.13;;;3.58;;
62711;SDS011;48772;55.586;37.730;2023-06-19T05:16:07;11.23;;;3.40;;
62711;SDS011;48772;55.586;37.730;2023-06-19T05:18:33;10.90;;;3.20;;
62711;SDS011;48772;55.586;37.730;2023-06-19T05:20:59;13.35;;;3.63;;
62711;SDS011;48772;55.586;37.730;2023-06-19T05:23:25;8.15;;;3.05;;
62711;SDS011;48772;55.586;37.730;2023-06-19T05:25:51;12.40;;;3.08;;
62711;SDS011;48772;55.586;37.730;2023-06-19T05:28:17;13.30;;;3.08;;
62711;SDS011;48772;55.586;37.730;2023-06-19T05:30:43;5.68;;;2.72;;
62711;SDS011;48772;55.586;37.730;2023-06-19T05:33:10;5.93;;;2.60;;
62711;SDS011;48772;55.586;37.730;2023-06-19T05:35:44;6.10;;;2.78;;
62711;SDS011;48772;55.586;37.730;2023-06-19T05:38:16;5.68;;;2.75;;
62711;SDS011;48772;55.586;37.730;2023-06-19T05:40:42;6.85;;;2.53;;
62711;SDS011;48772;55.586;37.730;2023-06-19T05:43:08;12.50;;;2.92;;
62711;SDS011;48772;55.586;37.730;2023-06-19T05:45:34;8.65;;;2.90;;
62711;SDS011;48772;55.586;37.730;2023-06-19T05:48:04;6.63;;;2.95;;
62711;SDS011;48772;55.586;37.730;2023-06-19T05:50:30;8.82;;;2.83;;
62711;SDS011;48772;55.586;37.730;2023-06-19T05:52:56;5.53;;;2.55;;
62711;SDS011;48772;55.586;37.730;2023-06-19T05:55:22;7.13;;;2.75;;
62711;SDS011;48772;55.586;37.730;2023-06-19T05:57:50;12.43;;;2.90;;
62711;SDS011;48772;55.586;37.730;2023-06-19T06:00:16;7.22;;;2.55;;
62711;SDS011;48772;55.586;37.730;2023-06-19T06:02:43;7.90;;;2.58;;
62711;SDS011;48772;55.586;37.730;2023-06-19T06:05:09;7.22;;;2.45;;
62711;SDS011;48772;55.586;37.730;2023-06-19T06:07:35;5.10;;;2.67;;
62711;SDS011;48772;55.586;37.730;2023-06-19T06:10:01;7.65;;;2.65;;
62711;SDS011;48772;55.586;37.730;2023-06-19T06:12:33;5.93;;;2.35;;
62711;SDS011;48772;55.586;37.730;2023-06-19T06:15:09;7.18;;;2.85;;
62711;SDS011;48772;55.586;37.730;2023-06-19T06:17:36;9.85;;;2.45;;
62711;SDS011;48772;55.586;37.730;2023-06-19T06:20:02;5.60;;;2.20;;
62711;SDS011;48772;55.586;37.730;2023-06-19T06:22:34;7.60;;;2.75;;
62711;SDS011;48772;55.586;37.730;2023-06-19T06:25:00;9.25;;;2.58;;
62711;SDS011;48772;55.586;37.730;2023-06-19T06:27:28;4.80;;;2.28;;
62711;SDS011;48772;55.586;37.730;2023-06-19T06:29:54;4.85;;;2.30;;
62711;SDS011;48772;55.586;37.730;2023-06-19T06:32:20;8.93;;;2.70;;
62711;SDS011;48772;55.586;37.730;2023-06-19T06:34:46;5.25;;;2.10;;
62711;SDS011;48772;55.586;37.730;2023-06-19T06:37:13;4.53;;;2.30;;
62711;SDS011;48772;55.586;37.730;2023-06-19T06:39:38;9.65;;;2.58;;
62711;SDS011;48772;55.586;37.730;2023-06-19T06:42:04;11.15;;;2.20;;
62711;SDS011;48772;55.586;37.730;2023-06-19T06:44:32;9.63;;;2.40;;
62711;SDS011;48772;55.586;37.730;2023-06-19T06:46:58;9.32;;;2.50;;
62711;SDS011;48772;55.586;37.730;2023-06-19T06:49:24;11.70;;;3.00;;
62711;SDS011;48772;55.586;37.730;2023-06-19T06:51:50;11.48;;;2.90;;
62711;SDS011;48772;55.586;37.730;2023-06-19T06:54:16;7.57;;;2.72;;
62711;SDS011;48772;55.586;37.730;2023-06-19T06:56:42;11.45;;;2.60;;
62711;SDS011;48772;55.586;37.730;2023-06-19T06:59:11;8.38;;;2.42;;
62711;SDS011;48772;55.586;37.730;2023-06-19T07:01:37;7.38;;;2.20;;
62711;SDS011;48772;55.586;37.730;2023-06-19T07:04:03;5.63;;;2.05;;
62711;SDS011;48772;55.586;37.730;2023-06-19T07:06:29;4.35;;;2.35;;
62711;SDS011;48772;55.586;37.730;2023-06-19T07:08:55;8.32;;;2.65;;
62711;SDS011;48772;55.586;37.730;2023-06-19T07:11:21;5.82;;;2.63;;
62711;SDS011;48772;55.586;37.730;2023-06-19T07:13:47;5.50;;;2.50;;
62711;SDS011;48772;55.586;37.730;2023-06-19T07:16:13;6.75;;;2.30;;
62711;SDS011;48772;55.586;37.730;2023-06-19T07:18:38;8.73;;;2.30;;
62711;SDS011;48772;55.586;37.730;2023-06-19T07:21:10;6.97;;;2.58;;
62711;SDS011;48772;55.586;37.730;2023-06-19T07:23:41;9.40;;;2.50;;
62711;SDS011;48772;55.586;37.730;2023-06-19T07:26:10;5.57;;;2.38;;
62711;SDS011;48772;55.586;37.730;2023-06-19T07:28:36;8.40;;;2.92;;
62711;SDS011;48772;55.586;37.730;2023-06-19T07:31:03;10.93;;;3.15;;
62711;SDS011;48772;55.586;37.730;2023-06-19T07:33:29;6.53;;;2.35;;
62711;SDS011;48772;55.586;37.730;2023-06-19T07:35:56;6.30;;;2.50;;
62711;SDS011;48772;55.586;37.730;2023-06-19T07:38:22;5.13;;;2.30;;
62711;SDS011;48772;55.586;37.730;2023-06-19T07:40:48;10.23;;;2.60;;
62711;SDS011;48772;55.586;37.730;2023-06-19T07:43:14;4.50;;;2.47;;
62711;SDS011;48772;55.586;37.730;2023-06-19T07:45:40;5.53;;;2.53;;
62711;SDS011;48772;55.586;37.730;2023-06-19T07:48:06;6.82;;;2.45;;
62711;SDS011;48772;55.586;37.730;2023-06-19T07:50:32;6.75;;;2.40;;
62711;SDS011;48772;55.586;37.730;2023-06-19T07:52:58;5.15;;;2.35;;
62711;SDS011;48772;55.586;37.730;2023-06-19T07:55:24;23.17;;;2.72;;
62711;SDS011;48772;55.586;37.730;2023-06-19T07:57:50;6.80;;;2.50;;
62711;SDS011;48772;55.586;37.730;2023-06-19T08:00:17;6.75;;;2.28;;
62711;SDS011;48772;55.586;37.730;2023-06-19T08:02:43;8.27;;;2.58;;
62711;SDS011;48772;55.586;37.730;2023-06-19T08:05:10;5.22;;;2.20;;
62711;SDS011;48772;55.586;37.730;2023-06-19T08:07:36;6.80;;;2.20;;
62711;SDS011;48772;55.586;37.730;2023-06-19T08:10:02;5.22;;;2.45;;
62711;SDS011;48772;55.586;37.730;2023-06-19T08:12:31;9.02;;;2.50;;
62711;SDS011;48772;55.586;37.730;2023-06-19T08:14:57;6.25;;;2.38;;
62711;SDS011;48772;55.586;37.730;2023-06-19T08:17:23;6.70;;;1.90;;
62711;SDS011;48772;55.586;37.730;2023-06-19T08:19:49;6.70;;;2.55;;
62711;SDS011;48772;55.586;37.730;2023-06-19T08:22:15;8.02;;;2.42;;
62711;SDS011;48772;55.586;37.730;2023-06-19T08:24:41;8.23;;;2.47;;
62711;SDS011;48772;55.586;37.730;2023-06-19T08:27:07;6.72;;;2.45;;
62711;SDS011;48772;55.586;37.730;2023-06-19T08:29:33;10.35;;;2.33;;
62711;SDS011;48772;55.586;37.730;2023-06-19T08:31:59;6.15;;;2.78;;
62711;SDS011;48772;55.586;37.730;2023-06-19T08:34:25;4.78;;;2.47;;
62711;SDS011;48772;55.586;37.730;2023-06-19T08:36:51;4.88;;;2.20;;
62711;SDS011;48772;55.586;37.730;2023-06-19T08:39:17;4.88;;;2.30;;
62711;SDS011;48772;55.586;37.730;2023-06-19T08:41:44;8.00;;;2.42;;
62711;SDS011;48772;55.586;37.730;2023-06-19T08:44:10;5.25;;;2.47;;
62711;SDS011;48772;55.586;37.730;2023-06-19T08:46:36;3.20;;;2.20;;
62711;SDS011;48772;55.586;37.730;2023-06-19T08:49:03;8.07;;;2.60;;
62711;SDS011;48772;55.586;37.730;2023-06-19T08:51:32;2.78;;;1.90;;
62711;SDS011;48772;55.586;37.730;2023-06-19T08:54:02;4.10;;;2.75;;
62711;SDS011;48772;55.586;37.730;2023-06-19T08:56:30;6.03;;;2.30;;
62711;SDS011;48772;55.586;37.730;2023-06-19T08:59:10;6.05;;;2.40;;
62711;SDS011;48772;55.586;37.730;2023-06-19T09:01:38;5.85;;;2.50;;
62711;SDS011;48772;55.586;37.730;2023-06-19T09:04:12;5.80;;;2.22;;
62711;SDS011;48772;55.586;37.730;2023-06-19T09:06:58;8.63;;;2.60;;
62711;SDS011;48772;55.586;37.730;2023-06-19T09:09:27;5.30;;;2.55;;
62711;SDS011;48772;55.586;37.730;2023-06-19T09:12:03;9.10;;;2.47;;
62711;SDS011;48772;55.586;37.730;2023-06-19T09:14:36;6.30;;;2.90;;
62711;SDS011;48772;55.586;37.730;2023-06-19T09:17:09;10.13;;;2.67;;
62711;SDS011;48772;55.586;37.730;2023-06-19T09:19:37;7.85;;;3.25;;
62711;SDS011;48772;55.586;37.730;2023-06-19T09:22:12;8.63;;;3.05;;
62711;SDS011;48772;55.586;37.730;2023-06-19T09:24:39;10.30;;;3.97;;
62711;SDS011;48772;55.586;37.730;2023-06-19T09:27:07;11.23;;;4.30;;
62711;SDS011;48772;55.586;37.730;2023-06-19T09:29:39;14.23;;;5.30;;
62711;SDS011;48772;55.586;37.730;2023-06-19T09:34:47;11.90;;;5.60;;
62711;SDS011;48772;55.586;37.730;2023-06-19T09:37:26;15.80;;;5.65;;
62711;SDS011;48772;55.586;37.730;2023-06-19T09:40:01;10.88;;;5.70;;
62711;SDS011;48772;55.586;37.730;2023-06-19T09:42:40;15.52;;;5.32;;
62711;SDS011;48772;55.586;37.730;2023-06-19T09:45:20;11.93;;;5.18;;
62711;SDS011;48772;55.586;37.730;2023-06-19T09:47:49;11.93;;;5.07;;
62711;SDS011;48772;55.586;37.730;2023-06-19T09:50:19;14.40;;;4.50;;
62711;SDS011;48772;55.586;37.730;2023-06-19T09:52:49;16.35;;;5.30;;
62711;SDS011;48772;55.586;37.730;2023-06-19T09:55:16;12.13;;;4.30;;
62711;SDS011;48772;55.586;37.730;2023-06-19T09:57:45;13.35;;;4.00;;
62711;SDS011;48772;55.586;37.730;2023-06-19T10:06:03;9.20;;;3.20;;
62711;SDS011;48772;55.586;37.730;2023-06-19T10:08:31;7.15;;;3.25;;
62711;SDS011;48772;55.586;37.730;2023-06-19T10:11:04;4.93;;;2.95;;
62711;SDS011;48772;55.586;37.730;2023-06-19T10:13:31;5.80;;;2.78;;
62711;SDS011;48772;55.586;37.730;2023-06-19T10:16:20;8.85;;;2.78;;
62711;SDS011;48772;55.586;37.730;2023-06-19T10:19:24;7.88;;;2.20;;
62711;SDS011;48772;55.586;37.730;2023-06-19T10:26:28;5.32;;;2.00;;
62711;SDS011;48772;55.586;37.730;2023-06-19T10:32:48;5.22;;;2.50;;
62711;SDS011;48772;55.586;37.730;2023-06-19T10:38:06;8.10;;;2.78;;
62711;SDS011;48772;55.586;37.730;2023-06-19T10:40:37;14.15;;;2.50;;
62711;SDS011;48772;55.586;37.730;2023-06-19T10:49:11;3.53;;;2.40;;
62711;SDS011;48772;55.586;37.730;2023-06-19T10:52:39;3.97;;;2.55;;
62711;SDS011;48772;55.586;37.730;2023-06-19T10:55:37;4.80;;;2.33;;
62711;SDS011;48772;55.586;37.730;2023-06-19T10:58:36;3.35;;;2.20;;
62711;SDS011;48772;55.586;37.730;2023-06-19T11:01:03;10.25;;;2.90;;
62711;SDS011;48772;55.586;37.730;2023-06-19T11:03:29;5.97;;;2.50;;
62711;SDS011;48772;55.586;37.730;2023-06-19T11:05:57;8.73;;;2.53;;
62711;SDS011;48772;55.586;37.730;2023-06-19T11:08:23;7.82;;;2.40;;
62711;SDS011;48772;55.586;37.730;2023-06-19T11:11:03;3.22;;;2.30;;
62711;SDS011;48772;55.586;37.730;2023-06-19T11:13:29;5.32;;;2.63;;
62711;SDS011;48772;55.586;37.730;2023-06-19T11:15:55;3.60;;;2.15;;
62711;SDS011;48772;55.586;37.730;2023-06-19T11:18:21;7.03;;;2.50;;
62711;SDS011;48772;55.586;37.730;2023-06-19T11:20:51;6.05;;;2.30;;
62711;SDS011;48772;55.586;37.730;2023-06-19T11:23:26;9.57;;;2.60;;
62711;SDS011;48772;55.586;37.730;2023-06-19T11:26:13;6.43;;;2.53;;
62711;SDS011;48772;55.586;37.730;2023-06-19T11:28:47;7.95;;;2.40;;
62711;SDS011;48772;55.586;37.730;2023-06-19T11:31:14;5.63;;;2.50;;
62711;SDS011;48772;55.586;37.730;2023-06-19T11:33:43;6.80;;;2.60;;
62711;SDS011;48772;55.586;37.730;2023-06-19T11:36:24;7.75;;;3.00;;
62711;SDS011;48772;55.586;37.730;2023-06-19T11:38:51;7.03;;;2.60;;
62711;SDS011;48772;55.586;37.730;2023-06-19T11:41:28;11.88;;;2.70;;
62711;SDS011;48772;55.586;37.730;2023-06-19T11:43:58;4.07;;;2.17;;
62711;SDS011;48772;55.586;37.730;2023-06-19T11:46:32;7.47;;;2.80;;
62711;SDS011;48772;55.586;37.730;2023-06-19T11:49:12;5.75;;;2.33;;
62711;SDS011;48772;55.586;37.730;2023-06-19T11:51:40;6.97;;;2.85;;
62711;SDS011;48772;55.586;37.730;2023-06-19T11:54:07;5.63;;;2.70;;
62711;SDS011;48772;55.586;37.730;2023-06-19T11:56:35;7.55;;;2.25;;
62711;SDS011;48772;55.586;37.730;2023-06-19T11:59:03;3.22;;;2.42;;
62711;SDS011;48772;55.586;37.730;2023-06-19T12:01:29;7.00;;;2.53;;
62711;SDS011;48772;55.586;37.730;2023-06-19T12:03:59;4.65;;;2.50;;
62711;SDS011;48772;55.586;37.730;2023-06-19T12:06:26;6.55;;;2.40;;
62711;SDS011;48772;55.586;37.730;2023-06-19T12:08:53;7.38;;;2.33;;
62711;SDS011;48772;55.586;37.730;2023-06-19T12:11:19;9.05;;;2.63;;
62711;SDS011;48772;55.586;37.730;2023-06-19T12:13:45;6.18;;;2.65;;
62711;SDS011;48772;55.586;37.730;2023-06-19T12:16:11;9.02;;;2.13;;
62711;SDS011;48772;55.586;37.730;2023-06-19T12:18:37;9.57;;;2.63;;
62711;SDS011;48772;55.586;37.730;2023-06-19T12:21:04;3.47;;;2.60;;
62711;SDS011;48772;55.586;37.730;2023-06-19T12:23:30;5.45;;;2.28;;
62711;SDS011;48772;55.586;37.730;2023-06-19T12:25:56;6.05;;;2.47;;
62711;SDS011;48772;55.586;37.730;2023-06-19T12:28:22;3.22;;;2.10;;
62711;SDS011;48772;55.586;37.730;2023-06-19T12:30:48;5.13;;;2.30;;
62711;SDS011;48772;55.586;37.730;2023-06-19T12:33:17;5.00;;;2.17;;
62711;SDS011;48772;55.586;37.730;2023-06-19T12:35:44;3.55;;;2.15;;
62711;SDS011;48772;55.586;37.730;2023-06-19T12:38:10;10.35;;;2.75;;
62711;SDS011;48772;55.586;37.730;2023-06-19T12:40:36;7.78;;;2.17;;
62711;SDS011;48772;55.586;37.730;2023-06-19T12:43:03;8.25;;;2.40;;
62711;SDS011;48772;55.586;37.730;2023-06-19T12:45:29;8.02;;;2.50;;
62711;SDS011;48772;55.586;37.730;2023-06-19T12:47:56;6.22;;;2.30;;
62711;SDS011;48772;55.586;37.730;2023-06-19T12:50:22;3.58;;;2.30;;
62711;SDS011;48772;55.586;37.730;2023-06-19T12:52:48;6.53;;;2.45;;
62711;SDS011;48772;55.586;37.730;2023-06-19T12:55:16;5.15;;;2.40;;
62711;SDS011;48772;55.586;37.730;2023-06-19T12:57:48;7.45;;;2.67;;
62711;SDS011;48772;55.586;37.730;2023-06-19T13:00:14;8.20;;;2.60;;
62711;SDS011;48772;55.586;37.730;2023-06-19T13:02:40;9.13;;;2.17;;
62711;SDS011;48772;55.586;37.730;2023-06-19T13:05:09;5.93;;;2.40;;
62711;SDS011;48772;55.586;37.730;2023-06-19T13:07:36;4.03;;;2.28;;
62711;SDS011;48772;55.586;37.730;2023-06-19T13:10:02;9.02;;;2.25;;
62711;SDS011;48772;55.586;37.730;2023-06-19T13:12:31;8.68;;;2.65;;
62711;SDS011;48772;55.586;37.730;2023-06-19T13:14:57;7.95;;;3.17;;
62711;SDS011;48772;55.586;37.730;2023-06-19T13:17:23;7.43;;;2.70;;
62711;SDS011;48772;55.586;37.730;2023-06-19T13:19:52;9.10;;;2.40;;
62711;SDS011;48772;55.586;37.730;2023-06-19T13:22:18;6.78;;;2.75;;
62711;SDS011;48772;55.586;37.730;2023-06-19T13:24:44;4.30;;;2.50;;
62711;SDS011;48772;55.586;37.730;2023-06-19T13:27:10;4.28;;;2.60;;
62711;SDS011;48772;55.586;37.730;2023-06-19T13:29:36;9.60;;;2.50;;
62711;SDS011;48772;55.586;37.730;2023-06-19T13:32:05;5.13;;;2.67;;
62711;SDS011;48772;55.586;37.730;2023-06-19T13:34:31;12.75;;;2.75;;
62711;SDS011;48772;55.586;37.730;2023-06-19T13:36:57;9.30;;;3.15;;
62711;SDS011;48772;55.586;37.730;2023-06-19T13:39:23;6.38;;;2.63;;
62711;SDS011;48772;55.586;37.730;2023-06-19T13:41:49;7.07;;;2.40;;
62711;SDS011;48772;55.586;37.730;2023-06-19T13:44:15;10.23;;;2.92;;
62711;SDS011;48772;55.586;37.730;2023-06-19T13:46:41;9.65;;;2.50;;
62711;SDS011;48772;55.586;37.730;2023-06-19T13:49:08;6.65;;;2.20;;
62711;SDS011;48772;55.586;37.730;2023-06-19T13:51:34;7.40;;;2.50;;
62711;SDS011;48772;55.586;37.730;2023-06-19T13:54:00;10.57;;;2.90;;
62711;SDS011;48772;55.586;37.730;2023-06-19T13:56:28;7.68;;;2.50;;
62711;SDS011;48772;55.586;37.730;2023-06-19T13:58:54;7.45;;;2.53;;
62711;SDS011;48772;55.586;37.730;2023-06-19T14:01:20;13.93;;;2.65;;
62711;SDS011;48772;55.586;37.730;2023-06-19T14:03:46;5.68;;;2.58;;
62711;SDS011;48772;55.586;37.730;2023-06-19T14:06:12;10.18;;;2.70;;
62711;SDS011;48772;55.586;37.730;2023-06-19T14:08:38;4.55;;;2.35;;
62711;SDS011;48772;55.586;37.730;2023-06-19T14:11:05;5.47;;;2.47;;
62711;SDS011;48772;55.586;37.730;2023-06-19T14:13:31;10.23;;;2.40;;
62711;SDS011;48772;55.586;37.730;2023-06-19T14:15:58;5.70;;;2.17;;
62711;SDS011;48772;55.586;37.730;2023-06-19T14:18:25;4.40;;;2.63;;
62711;SDS011;48772;55.586;37.730;2023-06-19T14:20:51;6.95;;;2.53;;
62711;SDS011;48772;55.586;37.730;2023-06-19T14:23:17;3.38;;;2.45;;
62711;SDS011;48772;55.586;37.730;2023-06-19T14:25:43;11.13;;;2.45;;
62711;SDS011;48772;55.586;37.730;2023-06-19T14:28:12;5.80;;;2.20;;
62711;SDS011;48772;55.586;37.730;2023-06-19T14:30:42;6.13;;;2.25;;
62711;SDS011;48772;55.586;37.730;2023-06-19T14:33:08;8.55;;;2.58;;
62711;SDS011;48772;55.586;37.730;2023-06-19T14:35:41;11.30;;;2.72;;
62711;SDS011;48772;55.586;37.730;2023-06-19T14:38:10;6.50;;;2.30;;
62711;SDS011;48772;55.586;37.730;2023-06-19T14:40:36;8.40;;;2.70;;
62711;SDS011;48772;55.586;37.730;2023-06-19T14:43:05;7.70;;;2.53;;
62711;SDS011;48772;55.586;37.730;2023-06-19T14:45:31;5.40;;;2.45;;
62711;SDS011;48772;55.586;37.730;2023-06-19T14:47:57;7.35;;;2.45;;
62711;SDS011;48772;55.586;37.730;2023-06-19T14:50:23;7.40;;;2.72;;
62711;SDS011;48772;55.586;37.730;2023-06-19T14:52:49;8.07;;;2.35;;
62711;SDS011;48772;55.586;37.730;2023-06-19T14:55:16;6.00;;;2.55;;
62711;SDS011;48772;55.586;37.730;2023-06-19T14:57:42;10.23;;;2.88;;
62711;SDS011;48772;55.586;37.730;2023-06-19T15:00:09;5.65;;;2.78;;
62711;SDS011;48772;55.586;37.730;2023-06-19T15:02:37;11.27;;;2.67;;
62711;SDS011;48772;55.586;37.730;2023-06-19T15:05:03;7.85;;;2.40;;